SUCCESS DAM (SCC)

Elevation: 692' · TULE R basin · Operator: US Army Corps of Engineers

Provisional data, subject to change.
Query executed Friday at 11:13:55   clock

Select a sensor type for a plot of data.
Note: Reservoir Flows are daily averages.

Earlier

Date RES ELE    STORAGE    RES CHG    TOC STO    ABV TOC    OUTFLOW    INFLOW    FNF    PPT INC    PPTINC4    TEMP MN    TEMP MX    WINDLEN    EVP PAN   
 FEET   AF   AF   AF   AF   CFS   CFS   CFS   INCHES   INCHES   DEG F   DEG F   MILES   INCHES  
04/30/2015 592.79 9003 0 82300 -73297 2 6 6 0.00 0.00 15 34 59 0.25
05/01/2015 592.79 9003 0 82300 -73297 3 6 6 0.00 0.00 18 35 66 0.26
05/02/2015 592.77 8994 -- 82270 -73276 1 1 1 0.00 0.00 15 34 76 0.30
05/03/2015 592.76 8989 -- 82228 -73239 1 2 2 0.00 0.00 14 32 73 0.29
05/04/2015 592.75 8984 -5 82188 -73204 3 4 4 0.00 0.00 12 28 66 0.23
05/05/2015 592.72 8970 -- 82143 -73173 3 -0 0 0.00 0.00 11 29 66 0.25
05/06/2015 592.70 8961 -9 82103 -73142 3 2 2 0.00 0.00 9 26 68 0.24
05/07/2015 592.68 8951 -10 82300 -- 4 1 1 0.03 0.00 9 20 97 0.18
05/08/2015 592.67 8947 -4 82300 -- 2 2 2 0.00 0.11 9 18 65 0.13
05/09/2015 592.67 8947 0 82300 -- 1 4 4 0.07 0.00 13 26 65 0.24
05/10/2015 592.69 8956 9 82300 -- 0 9 9 0.06 0.00 13 31 56 0.27
05/11/2015 592.69 8956 0 82300 -73344 1 4 4 0.00 0.00 13 30 70 0.26
05/12/2015 592.69 8956 0 82300 -73344 2 5 5 0.00 0.00 10 26 62 0.25
05/13/2015 592.68 8951 -5 82300 -73349 3 4 4 0.00 0.00 9 24 64 0.23
05/14/2015 592.73 8975 24 82300 -73325 3 17 17 1.39 0.00 10 22 79 0.16
05/15/2015 592.78 8999 24 82300 -73301 2 16 16 0.08 1.46 10 21 49 0.13
05/16/2015 592.82 9018 19 82300 -73282 1 14 14 0.01 0.01 10 26 60 0.25
05/17/2015 592.84 9027 9 82300 -73273 5 13 13 0.00 0.00 12 26 77 0.22
05/18/2015 592.76 8989 -38 82300 -73311 25 9 9 0.00 0.00 13 25 79 0.25
05/19/2015 592.71 8965 -24 82300 -73335 19 10 10 0.00 0.00 11 26 70 0.25
05/20/2015 592.65 8937 -28 82300 -73363 20 10 10 0.02 0.00 14 27 80 0.25
05/21/2015 592.58 8904 -33 82300 -73396 21 5 5 0.00 0.02 12 19 79 0.09
05/22/2015 592.53 8881 -23 82300 -73419 21 11 11 0.00 0.04 12 21 43 0.09
05/23/2015 592.51 8871 -10 82300 -73429 20 18 18 0.08 0.01 15 26 61 0.20
05/24/2015 592.49 8862 -9 82300 -73438 19 18 18 0.04 0.08 13 28 68 0.27
05/25/2015 592.49 8862 0 82300 -73438 11 15 15 0.03 0.00 17 32 71 0.29
05/26/2015 592.50 8866 4 82300 -73434 6 12 12 0.00 0.00 14 31 75 0.28
05/27/2015 592.48 8857 -9 82300 -73443 7 7 7 0.00 0.00 15 32 68 0.30
05/28/2015 592.45 8843 -14 82300 -73457 8 5 5 0.00 0.00 15 33 66 0.29
05/29/2015 -- -- -- -- -- -- -- -- -- 0.00 -- -- -- --

Later | Latest

Warning! This data is preliminary and subject to revision.

Show SCC Map | Plot SCC Data | 1 Month SCC Data | Real-Time SCC Data | SCC Info